createdAt,value
2023-02-19T00:01:09.503Z,95319.19
2023-02-19T00:04:15.439Z,95326.09
2023-02-19T00:07:19.922Z,95323.16
2023-02-19T00:10:22.946Z,95311.69
2023-02-19T00:13:25.956Z,95317.81
2023-02-19T00:16:31.134Z,95317.03
2023-02-19T00:19:34.386Z,95298.38
2023-02-19T00:22:38.730Z,95311.69
2023-02-19T00:25:41.745Z,95305.59
2023-02-19T00:28:44.724Z,95306.38
2023-02-19T00:31:48.186Z,95303.22
2023-02-19T00:34:51.194Z,95286.16
2023-02-19T00:37:55.578Z,95293.34
2023-02-19T00:41:00.881Z,95262.59
2023-02-19T00:44:05.853Z,95287.44
2023-02-19T00:47:09.106Z,95276.97
2023-02-19T00:50:12.209Z,95287.84
2023-02-19T00:53:16.584Z,95279.75
2023-02-19T00:56:20.136Z,95273.31
2023-02-19T00:59:23.146Z,95265.94
2023-02-19T01:02:27.131Z,95276.00
2023-02-19T01:05:30.176Z,95267.69
2023-02-19T01:08:35.248Z,95277.56
2023-02-19T01:11:38.577Z,95281.31
2023-02-19T01:14:41.691Z,95276.78
2023-02-19T01:17:44.703Z,95272.53
2023-02-19T01:20:48.023Z,95260.00
2023-02-19T01:23:53.426Z,95261.19
2023-02-19T01:26:56.412Z,95269.09
2023-02-19T01:29:59.443Z,95277.06
2023-02-19T01:33:02.502Z,95285.06
2023-02-19T01:36:06.767Z,95290.38
2023-02-19T01:39:12.502Z,95286.44
2023-02-19T01:42:17.012Z,95277.06
2023-02-19T01:45:25.104Z,95296.31
2023-02-19T01:48:32.656Z,95304.00
2023-02-19T01:51:39.312Z,95319.19
2023-02-19T01:54:45.657Z,95277.66
2023-02-19T01:57:53.106Z,95316.84
2023-02-19T02:00:56.294Z,95324.81
2023-02-19T02:03:59.497Z,95325.13
2023-02-19T02:07:24.559Z,95313.97
2023-02-19T02:10:27.948Z,95309.44
2023-02-19T02:13:31.455Z,95310.50
2023-02-19T02:16:45.491Z,95298.50
2023-02-19T02:20:04.029Z,95312.09
2023-02-19T02:23:17.530Z,95313.97
2023-02-19T02:26:39.210Z,95315.03
2023-02-19T02:30:21.734Z,95310.50
2023-02-19T02:33:32.767Z,95311.09
2023-02-19T02:36:39.693Z,95309.72
2023-02-19T02:39:43.975Z,95308.13
2023-02-19T02:42:47.125Z,95314.25
2023-02-19T02:45:51.593Z,95305.47
2023-02-19T02:48:58.685Z,95311.88
2023-02-19T02:52:23.453Z,95295.91
2023-02-19T02:55:26.337Z,95299.66
2023-02-19T02:58:30.326Z,95290.19
2023-02-19T03:01:56.642Z,95304.19
2023-02-19T03:05:21.988Z,95289.00
2023-02-19T03:08:29.399Z,95314.06
2023-02-19T03:11:51.826Z,95315.16
2023-02-19T03:15:18.189Z,95322.34
2023-02-19T03:18:41.820Z,95319.97
2023-02-19T03:21:46.938Z,95319.69
2023-02-19T03:25:12.689Z,95333.00
2023-02-19T03:28:18.176Z,95335.16
2023-02-19T03:31:23.596Z,95341.00
2023-02-19T03:34:33.678Z,95348.19
2023-02-19T03:37:42.817Z,95355.38
2023-02-19T03:40:55.783Z,95353.50
2023-02-19T03:44:08.927Z,95366.84
2023-02-19T03:47:19.566Z,95369.50
2023-02-19T03:50:28.764Z,95366.84
2023-02-19T03:53:37.798Z,95353.91
2023-02-19T03:56:46.669Z,95361.59
2023-02-19T03:59:55.300Z,95367.13
2023-02-19T04:03:06.933Z,95369.31
2023-02-19T04:06:16.748Z,95371.16
2023-02-19T04:09:22.126Z,95376.78
2023-02-19T04:12:25.921Z,95379.47
2023-02-19T04:15:32.321Z,95378.66
2023-02-19T04:18:39.739Z,95380.06
2023-02-19T04:21:46.591Z,95359.22
2023-02-19T04:24:52.077Z,95378.47
2023-02-19T04:27:55.317Z,95380.31
2023-02-19T04:30:58.401Z,95381.41
2023-02-19T04:34:01.371Z,95388.59
2023-02-19T04:37:06.379Z,95394.72
2023-02-19T04:40:10.830Z,95371.53
2023-02-19T04:43:13.904Z,95385.16
2023-02-19T04:46:17.295Z,95392.34
2023-02-19T04:49:20.383Z,95380.13
2023-02-19T04:52:24.842Z,95379.03
2023-02-19T04:55:27.787Z,95389.97
2023-02-19T04:58:32.191Z,95392.34
2023-02-19T05:01:35.195Z,95396.09
2023-02-19T05:04:38.225Z,95396.09
2023-02-19T05:07:42.608Z,95397.97
2023-02-19T05:10:45.635Z,95398.75
2023-02-19T05:13:48.658Z,95381.69
2023-02-19T05:16:51.656Z,95405.94
2023-02-19T05:19:54.733Z,95397.97
2023-02-19T05:22:59.086Z,95409.69
2023-02-19T05:26:06.763Z,95413.94
2023-02-19T05:29:09.821Z,95410.50
2023-02-19T05:32:12.938Z,95411.28
2023-02-19T05:35:16.238Z,95417.69
2023-02-19T05:38:20.929Z,95421.94
2023-02-19T05:41:26.477Z,95427.25
2023-02-19T05:44:29.473Z,95429.63
2023-02-19T05:47:32.484Z,95422.44
2023-02-19T05:50:39.705Z,95428.53
2023-02-19T05:53:45.228Z,95429.13
2023-02-19T05:56:48.343Z,95422.44
2023-02-19T05:59:51.400Z,95421.34
2023-02-19T06:02:55.238Z,95427.97
2023-02-19T06:05:58.291Z,95417.19
2023-02-19T06:09:02.690Z,95442.28
2023-02-19T06:12:06.185Z,95426.16
2023-02-19T06:15:09.684Z,95446.53
2023-02-19T06:18:12.662Z,95445.03
2023-02-19T06:21:17.101Z,95444.22
2023-02-19T06:24:21.517Z,95444.22
2023-02-19T06:27:24.531Z,95460.03
2023-02-19T06:30:27.621Z,95463.19
2023-02-19T06:33:30.738Z,95455.41
2023-02-19T06:36:33.803Z,95458.31
2023-02-19T06:39:38.434Z,95461.47
2023-02-19T06:42:41.445Z,95462.94
2023-02-19T06:45:44.457Z,95445.97
2023-02-19T06:48:47.515Z,95457.00
2023-02-19T06:51:50.537Z,95465.38
2023-02-19T06:54:55.302Z,95472.47
2023-02-19T06:57:59.017Z,95475.13
2023-02-19T07:01:02.114Z,95465.38
2023-02-19T07:04:06.028Z,95473.19
2023-02-19T07:07:12.990Z,95476.25
2023-02-19T07:10:18.067Z,95477.31
2023-02-19T07:13:21.018Z,95471.09
2023-02-19T07:16:24.403Z,95471.72
2023-02-19T07:19:27.442Z,95468.63
2023-02-19T07:22:30.353Z,95464.03
2023-02-19T07:25:34.704Z,95449.00
2023-02-19T07:28:37.671Z,95449.91
2023-02-19T07:31:40.763Z,95442.19
2023-02-19T07:34:43.792Z,95437.16
2023-02-19T07:37:48.380Z,95434.47
2023-02-19T07:40:56.446Z,95439.09
2023-02-19T07:43:59.618Z,95426.94
2023-02-19T07:47:02.676Z,95438.38
2023-02-19T07:50:05.931Z,95444.69
2023-02-19T07:53:09.384Z,95447.06
2023-02-19T07:56:15.033Z,95441.72
2023-02-19T07:59:19.546Z,95436.06
2023-02-19T08:02:40.101Z,95440.53
2023-02-19T08:05:45.127Z,95436.25
2023-02-19T08:08:48.371Z,95435.19
2023-02-19T08:12:09.985Z,95427.97
2023-02-19T08:15:13.009Z,95432.72
2023-02-19T08:18:17.468Z,95410.00
2023-02-19T08:21:21.173Z,95407.03
2023-02-19T08:24:24.186Z,95429.25
2023-02-19T08:27:28.523Z,95416.00
2023-02-19T08:30:32.894Z,95416.91
2023-02-19T08:33:36.526Z,95418.97
2023-02-19T08:36:39.860Z,95416.31
2023-02-19T08:39:42.889Z,95434.97
2023-02-19T08:42:47.317Z,95434.97
2023-02-19T08:45:53.573Z,95430.91
2023-02-19T08:48:56.554Z,95428.56
2023-02-19T08:51:59.585Z,95417.53
2023-02-19T08:55:02.742Z,95422.38
2023-02-19T08:58:07.348Z,95417.81
2023-02-19T09:01:12.095Z,95404.88
2023-02-19T09:04:15.398Z,95404.00
2023-02-19T09:07:18.980Z,95397.88
2023-02-19T09:10:22.055Z,95387.50
2023-02-19T09:13:26.495Z,95389.38
2023-02-19T09:16:29.518Z,95384.34
2023-02-19T09:19:33.350Z,95380.84
2023-02-19T09:22:36.417Z,95373.94
2023-02-19T09:25:39.420Z,95373.16
2023-02-19T09:28:43.808Z,95370.19
2023-02-19T09:31:47.068Z,95374.34
2023-02-19T09:34:51.086Z,95358.44
2023-02-19T09:37:54.133Z,95365.66
2023-02-19T09:40:58.113Z,95364.28
2023-02-19T09:44:04.573Z,95359.50
2023-02-19T09:47:16.568Z,95358.25
2023-02-19T09:50:24.139Z,95360.91
2023-02-19T09:53:36.369Z,95358.44
2023-02-19T09:56:39.528Z,95355.19
2023-02-19T09:59:47.938Z,95329.69
2023-02-19T10:02:54.386Z,95338.25
2023-02-19T10:05:59.055Z,95325.88
2023-02-19T10:09:17.624Z,95315.97
2023-02-19T10:12:25.932Z,95295.19
2023-02-19T10:15:35.888Z,95291.44
2023-02-19T10:18:42.392Z,95304.41
2023-02-19T10:21:46.057Z,95299.06
2023-02-19T10:24:53.449Z,95284.25
2023-02-19T10:27:58.737Z,95275.63
2023-02-19T10:31:06.686Z,95278.97
2023-02-19T10:34:22.512Z,95264.78
2023-02-19T10:37:25.521Z,95273.28
2023-02-19T10:40:29.981Z,95253.81
2023-02-19T10:43:37.532Z,95254.09
2023-02-19T10:46:46.755Z,95251.75
2023-02-19T10:49:51.432Z,95231.44
2023-02-19T10:52:57.689Z,95242.31
2023-02-19T10:56:09.336Z,95231.63
2023-02-19T10:59:26.246Z,95221.28
2023-02-19T11:02:32.083Z,95222.06
2023-02-19T11:05:35.667Z,95214.63
2023-02-19T11:08:55.284Z,95202.84
2023-02-19T11:11:59.711Z,95198.91
2023-02-19T11:15:22.497Z,95198.13
2023-02-19T11:18:29.102Z,95195.63
2023-02-19T11:21:33.033Z,95195.78
2023-02-19T11:24:40.598Z,95182.44
2023-02-19T11:27:56.249Z,95179.66
2023-02-19T11:31:16.715Z,95173.53
2023-02-19T11:34:31.684Z,95166.03
2023-02-19T11:37:34.654Z,95167.41
2023-02-19T11:40:42.394Z,95164.25
2023-02-19T11:44:08.888Z,95149.97
2023-02-19T11:47:37.505Z,95148.06
2023-02-19T11:50:53.212Z,95138.97
2023-02-19T11:54:09.075Z,95142.72
2023-02-19T11:57:30.622Z,95133.47
2023-02-19T12:00:42.021Z,95128.13
2023-02-19T12:04:26.592Z,95111.59
2023-02-19T12:07:51.536Z,95108.94
2023-02-19T12:11:10.925Z,95102.34
2023-02-19T12:14:35.030Z,95099.31
2023-02-19T12:17:56.557Z,95099.50
2023-02-19T12:21:12.136Z,95092.13
2023-02-19T12:24:42.474Z,95082.25
2023-02-19T12:27:57.046Z,95084.41
2023-02-19T12:31:13.299Z,95076.41
2023-02-19T12:34:36.210Z,95075.66
2023-02-19T12:37:48.018Z,95049.38
2023-02-19T12:41:05.187Z,95051.13
2023-02-19T12:44:13.235Z,95047.19
2023-02-19T12:47:20.607Z,95039.19
2023-02-19T12:50:26.564Z,95030.19
2023-02-19T12:53:41.381Z,95029.94
2023-02-19T12:56:51.666Z,95004.03
2023-02-19T13:00:03.084Z,95007.34
2023-02-19T13:03:12.409Z,95007.19
2023-02-19T13:06:25.573Z,94998.56
2023-02-19T13:09:34.515Z,94992.44
2023-02-19T13:12:43.428Z,94988.66
2023-02-19T13:15:51.506Z,94983.97
2023-02-19T13:18:59.452Z,94980.19
2023-02-19T13:22:31.202Z,94974.06
2023-02-19T13:25:50.342Z,94968.72
2023-02-19T13:29:05.929Z,94966.06
2023-02-19T13:32:51.032Z,94958.84
2023-02-19T13:36:10.241Z,94952.25
2023-02-19T13:42:28.015Z,94950.38
2023-02-19T13:45:39.533Z,94946.13
2023-02-19T13:48:44.497Z,94943.00
2023-02-19T13:51:51.215Z,94933.56
2023-02-19T13:55:14.229Z,94935.75
2023-02-19T13:58:54.769Z,94929.31
2023-02-19T14:02:30.771Z,94936.22
2023-02-19T14:06:00.955Z,94929.16
2023-02-19T14:09:03.964Z,94934.34
2023-02-19T14:12:20.093Z,94918.94
2023-02-19T14:15:51.355Z,94923.34
2023-02-19T14:18:56.373Z,94916.13
2023-02-19T14:22:00.859Z,94915.97
2023-02-19T14:25:08.204Z,94910.66
2023-02-19T14:28:52.426Z,94906.22
2023-02-19T14:31:57.407Z,94899.00
2023-02-19T14:35:00.587Z,94895.09
2023-02-19T14:38:06.328Z,94895.41
2023-02-19T14:41:13.671Z,94897.91
2023-02-19T14:44:21.168Z,94884.88
2023-02-19T14:47:26.930Z,94888.66
2023-02-19T14:50:32.458Z,94872.31
2023-02-19T14:53:40.816Z,94878.31
2023-02-19T14:56:46.819Z,94881.75
2023-02-19T14:59:55.006Z,94884.09
2023-02-19T15:03:00.150Z,94870.94
2023-02-19T15:06:06.827Z,94871.09
2023-02-19T15:09:11.356Z,94873.88
2023-02-19T15:12:20.110Z,94869.19
2023-02-19T15:15:26.795Z,94843.72
2023-02-19T15:18:35.697Z,94852.50
2023-02-19T15:21:44.624Z,94861.94
2023-02-19T15:24:49.185Z,94869.81
2023-02-19T15:27:52.207Z,94855.69
2023-02-19T15:31:07.840Z,94865.59
2023-02-19T15:34:17.738Z,94848.59
2023-02-19T15:37:21.286Z,94860.50
2023-02-19T15:40:32.465Z,94868.81
2023-02-19T15:43:44.610Z,94861.31
2023-02-19T15:46:49.010Z,94873.41
2023-02-19T15:49:58.468Z,94881.59
2023-02-19T15:53:07.125Z,94889.28
2023-02-19T15:56:17.590Z,94899.00
2023-02-19T15:59:27.006Z,94907.50
2023-02-19T16:02:30.602Z,94906.22
2023-02-19T16:05:39.360Z,94911.09
2023-02-19T16:08:43.900Z,94916.28
2023-02-19T16:11:53.348Z,94924.13
2023-02-19T16:14:56.384Z,94923.50
2023-02-19T16:18:00.401Z,94922.41
2023-02-19T16:21:07.214Z,94921.00
2023-02-19T16:24:18.155Z,94918.97
2023-02-19T16:27:32.643Z,94932.94
2023-02-19T16:30:36.335Z,94939.50
2023-02-19T16:33:41.362Z,94934.03
2023-02-19T16:36:46.301Z,94935.75
2023-02-19T16:39:49.753Z,94938.56
2023-02-19T16:43:29.237Z,94949.22
2023-02-19T16:46:32.288Z,94954.56
2023-02-19T16:49:35.594Z,94965.44
2023-02-19T16:52:42.364Z,94961.94
2023-02-19T16:55:45.448Z,94971.34
2023-02-19T16:58:49.921Z,94973.72
2023-02-19T17:01:53.141Z,94975.59
2023-02-19T17:04:56.426Z,94976.88
2023-02-19T17:07:59.744Z,94977.94
2023-02-19T17:11:04.067Z,94981.41
2023-02-19T17:14:09.365Z,94983.59
2023-02-19T17:17:12.455Z,94982.47
2023-02-19T17:20:24.084Z,94990.97
2023-02-19T17:23:27.104Z,94998.66
2023-02-19T17:26:31.987Z,95006.19
2023-02-19T17:29:37.216Z,95009.13
2023-02-19T17:32:40.324Z,95000.34
2023-02-19T17:35:44.970Z,95011.22
2023-02-19T17:38:48.376Z,95012.31
2023-02-19T17:41:51.986Z,95010.28
2023-02-19T17:44:56.537Z,95000.97
2023-02-19T17:47:59.915Z,95024.69
2023-02-19T17:51:02.910Z,95023.50
2023-02-19T17:54:08.287Z,95031.47
2023-02-19T17:57:11.526Z,95017.19
2023-02-19T18:00:18.124Z,95026.88
2023-02-19T18:03:21.338Z,95023.88
2023-02-19T18:06:24.365Z,95028.44
2023-02-19T18:09:27.522Z,95031.97
2023-02-19T18:12:30.587Z,95038.19
2023-02-19T18:15:35.031Z,95041.34
2023-02-19T18:18:38.282Z,95045.16
2023-02-19T18:21:41.378Z,95050.66
2023-02-19T18:24:46.872Z,95063.69
2023-02-19T18:27:50.436Z,95070.91
2023-02-19T18:30:55.051Z,95081.00
2023-02-19T18:33:58.089Z,95074.72
2023-02-19T18:37:01.128Z,95082.25
2023-02-19T18:40:05.643Z,95075.34
2023-02-19T18:43:08.919Z,95085.06
2023-02-19T18:46:13.347Z,95086.97
2023-02-19T18:49:17.489Z,95091.50
2023-02-19T18:52:23.948Z,95094.66
2023-02-19T18:55:26.965Z,95094.66
2023-02-19T18:58:29.957Z,95094.66
2023-02-19T19:01:34.435Z,95096.53
2023-02-19T19:04:38.676Z,95103.75
2023-02-19T19:07:41.896Z,95109.88
2023-02-19T19:10:45.049Z,95121.34
2023-02-19T19:13:48.021Z,95129.34
2023-02-19T19:16:52.475Z,95135.00
2023-02-19T19:19:56.450Z,95136.09
2023-02-19T19:22:59.479Z,95134.22
2023-02-19T19:26:02.510Z,95146.94
2023-02-19T19:29:05.565Z,95143.59
2023-02-19T19:32:10.890Z,95148.16
2023-02-19T19:35:13.938Z,95142.97
2023-02-19T19:38:17.271Z,95149.28
2023-02-19T19:41:21.245Z,95152.25
2023-02-19T19:44:24.707Z,95150.84
2023-02-19T19:47:29.179Z,95154.94
2023-02-19T19:50:32.269Z,95160.28
2023-02-19T19:53:35.375Z,95156.47
2023-02-19T19:56:42.255Z,95157.09
2023-02-19T19:59:45.372Z,95145.09
2023-02-19T20:02:52.130Z,95164.00
2023-02-19T20:05:56.039Z,95170.44
2023-02-19T20:08:59.715Z,95175.28
2023-02-19T20:12:03.431Z,95188.00
2023-02-19T20:15:07.266Z,95192.41
2023-02-19T20:18:11.727Z,95182.50
2023-02-19T20:21:15.365Z,95195.84
2023-02-19T20:24:19.865Z,95180.09
2023-02-19T20:27:24.394Z,95175.19
2023-02-19T20:30:27.492Z,95201.00
2023-02-19T20:33:31.889Z,95201.50
2023-02-19T20:36:34.983Z,95195.69
2023-02-19T20:39:38.056Z,95199.41
2023-02-19T20:42:41.116Z,95202.09
2023-02-19T20:45:46.966Z,95212.16
2023-02-19T20:48:52.020Z,95214.53
2023-02-19T20:51:58.177Z,95208.50
2023-02-19T20:55:01.238Z,95218.66
2023-02-19T20:58:04.498Z,95231.22
2023-02-19T21:01:08.360Z,95229.34
2023-02-19T21:04:13.100Z,95229.66
2023-02-19T21:07:16.444Z,95235.28
2023-02-19T21:10:19.786Z,95232.44
2023-02-19T21:13:23.292Z,95232.94
2023-02-19T21:16:26.620Z,95223.16
2023-02-19T21:19:31.096Z,95214.50
2023-02-19T21:22:34.146Z,95231.59
2023-02-19T21:25:37.349Z,95224.97
2023-02-19T21:28:40.738Z,95220.72
2023-02-19T21:31:45.801Z,95224.41
2023-02-19T21:34:50.283Z,95223.13
2023-02-19T21:37:53.328Z,95240.28
2023-02-19T21:40:56.414Z,95234.47
2023-02-19T21:43:59.809Z,95231.31
2023-02-19T21:47:02.943Z,95249.97
2023-02-19T21:50:08.718Z,95243.50
2023-02-19T21:53:11.754Z,95245.44
2023-02-19T21:56:23.286Z,95252.16
2023-02-19T21:59:26.492Z,95257.97
2023-02-19T22:02:29.498Z,95248.06
2023-02-19T22:05:33.913Z,95258.28
2023-02-19T22:08:36.910Z,95269.25
2023-02-19T22:11:40.029Z,95263.44
2023-02-19T22:14:43.054Z,95275.38
2023-02-19T22:17:46.828Z,95266.72
2023-02-19T22:20:51.283Z,95273.00
2023-02-19T22:23:55.922Z,95273.31
2023-02-19T22:27:00.189Z,95279.75
2023-02-19T22:30:03.361Z,95275.91
2023-02-19T22:33:06.448Z,95285.88
2023-02-19T22:36:16.380Z,95283.50
2023-02-19T22:39:21.930Z,95302.97
2023-02-19T22:42:25.409Z,95307.50
2023-02-19T22:45:28.444Z,95307.81
2023-02-19T22:48:31.604Z,95307.28
2023-02-19T22:51:36.756Z,95315.50
2023-02-19T22:54:40.844Z,95322.72
2023-02-19T22:57:43.936Z,95320.84
2023-02-19T23:00:47.010Z,95316.59
2023-02-19T23:03:52.267Z,95302.06
2023-02-19T23:06:56.758Z,95298.81
2023-02-19T23:09:59.901Z,95303.56
2023-02-19T23:13:02.925Z,95293.69
2023-02-19T23:16:06.292Z,95294.75
2023-02-19T23:19:11.697Z,95295.84
2023-02-19T23:22:16.160Z,95295.34
2023-02-19T23:25:19.260Z,95298.81
2023-02-19T23:28:22.370Z,95302.56
2023-02-19T23:31:26.859Z,95295.66
2023-02-19T23:34:29.947Z,95295.66
2023-02-19T23:37:34.288Z,95294.09
2023-02-19T23:40:37.517Z,95282.25
2023-02-19T23:43:40.543Z,95293.28
2023-02-19T23:46:43.915Z,95297.84
2023-02-19T23:49:46.986Z,95275.94
2023-02-19T23:52:51.374Z,95303.16
2023-02-19T23:55:54.396Z,95314.13
2023-02-19T23:58:57.460Z,95320.75
